Time;durP1;ratioP1;P1;durP2;ratioP2;P2;SDS_P1;SDS_P2;PMS_P1;PMS_P2;Temp;Humidity;BMP_temperature;BMP_pressure;BME280_temperature;BME280_humidity;BME280_pressure;Samples;Min_cycle;Max_cycle;Signal;HPM_P1;HPM_P2
2021/04/26 00:00:19;;;;;;;2.75;1.42;;;;;;;3.90;70.91;99557.98;1757092;80;21294;-60
2021/04/26 00:02:46;;;;;;;3.80;1.67;;;;;;;3.89;71.20;99554.50;1690221;83;21187;-61
2021/04/26 00:05:14;;;;;;;4.10;2.12;;;;;;;3.80;71.68;99561.27;1660591;85;21224;-60
2021/04/26 00:07:42;;;;;;;4.20;1.75;;;;;;;3.75;72.09;99564.37;1645887;86;21147;-59
2021/04/26 00:10:33;;;;;;;4.03;1.80;;;;;;;3.71;72.39;99559.15;1641646;86;21189;-59
2021/04/26 00:13:01;;;;;;;4.67;2.27;;;;;;;3.75;72.13;99554.42;1687126;85;21288;-59
2021/04/26 00:15:32;;;;;;;5.33;2.10;;;;;;;3.71;72.46;99555.11;1649974;87;21641;-59
2021/04/26 00:17:59;;;;;;;6.37;2.05;;;;;;;3.59;72.75;99538.93;1627238;87;21195;-60
2021/04/26 00:20:29;;;;;;;5.15;2.33;;;;;;;3.52;73.53;99532.83;1637721;87;21194;-59
2021/04/26 00:23:00;;;;;;;4.95;2.10;;;;;;;3.48;73.50;99523.57;1653972;87;21144;-59
2021/04/26 00:25:28;;;;;;;4.58;2.00;;;;;;;3.48;74.03;99535.16;1654405;87;21542;-59
2021/04/26 00:27:57;;;;;;;4.40;1.62;;;;;;;3.39;73.99;99527.14;1654974;87;21621;-59
2021/04/26 00:30:25;;;;;;;5.28;2.47;;;;;;;3.37;74.35;99538.64;1643169;87;21209;-60
2021/04/26 00:32:53;;;;;;;15.43;7.83;;;;;;;3.47;74.13;99548.31;1654073;87;21158;-59
2021/04/26 00:35:22;;;;;;;21.77;13.80;;;;;;;3.47;74.41;99542.93;1654183;87;21177;-59
2021/04/26 00:37:49;;;;;;;8.68;4.58;;;;;;;3.40;74.51;99547.59;1654378;87;21712;-59
2021/04/26 00:40:18;;;;;;;23.50;17.40;;;;;;;3.41;74.47;99538.48;1654165;86;21720;-59
2021/04/26 00:42:47;;;;;;;38.73;28.02;;;;;;;3.45;74.49;99532.94;1654371;87;21164;-58
2021/04/26 00:45:17;;;;;;;23.75;16.27;;;;;;;3.48;74.52;99523.57;1654265;87;21296;-58
2021/04/26 00:47:45;;;;;;;9.45;5.50;;;;;;;3.40;74.71;99513.95;1654601;87;21182;-59
2021/04/26 00:50:20;;;;;;;10.05;6.90;;;;;;;3.32;75.01;99523.73;1654186;87;21154;-59
2021/04/26 00:52:48;;;;;;;4.58;1.60;;;;;;;3.40;75.03;99527.41;1640472;86;21249;-58
2021/04/26 00:55:16;;;;;;;3.95;1.80;;;;;;;3.42;74.88;99536.09;1654577;87;21692;-58
2021/04/26 00:58:25;;;;;;;4.45;1.90;;;;;;;3.36;75.47;99535.67;1806648;77;22740;-58
2021/04/26 01:00:52;;;;;;;4.17;1.80;;;;;;;3.33;75.50;99539.34;1725230;81;21161;-59
2021/04/26 01:03:21;;;;;;;5.25;2.37;;;;;;;3.45;75.41;99542.35;1757490;81;21609;-59
2021/04/26 01:05:49;;;;;;;4.78;2.35;;;;;;;3.51;75.19;99550.02;1754034;82;21628;-59
2021/04/26 01:08:17;;;;;;;7.53;3.90;;;;;;;3.51;75.20;99558.92;1746462;80;21179;-60
2021/04/26 01:10:53;;;;;;;4.60;2.40;;;;;;;3.51;75.02;99562.95;1738606;81;21127;-57
2021/04/26 01:13:59;;;;;;;5.90;2.02;;;;;;;3.56;75.01;99561.45;1724055;80;21164;-58
2021/04/26 01:16:37;;;;;;;3.60;1.52;;;;;;;3.61;74.84;99558.90;1745813;80;21184;-58
2021/04/26 01:19:27;;;;;;;3.05;1.70;;;;;;;3.71;74.38;99559.97;1739446;80;21594;-59
2021/04/26 01:22:26;;;;;;;2.95;1.35;;;;;;;3.73;74.46;99552.99;1743664;80;21182;-58
2021/04/26 01:25:18;;;;;;;4.20;1.57;;;;;;;3.73;74.46;99556.51;1697330;82;21133;-58
2021/04/26 01:28:12;;;;;;;3.30;1.60;;;;;;;3.71;74.47;99542.47;1722536;82;21716;-59
2021/04/26 01:30:54;;;;;;;4.03;1.50;;;;;;;3.77;74.27;99542.06;1753400;80;21157;-58
2021/04/26 01:33:27;;;;;;;2.95;1.40;;;;;;;3.83;73.91;99544.64;1742457;81;21157;-59
2021/04/26 01:36:03;;;;;;;3.60;1.65;;;;;;;3.82;73.84;99545.71;1754807;82;21724;-58
2021/04/26 01:38:35;;;;;;;5.90;2.25;;;;;;;3.79;74.02;99535.37;1755492;81;21169;-58
2021/04/26 01:41:03;;;;;;;4.33;1.98;;;;;;;3.74;74.18;99527.72;1748041;81;21157;-58
2021/04/26 01:43:33;;;;;;;4.12;1.90;;;;;;;3.67;74.37;99521.63;1752883;81;21169;-59
2021/04/26 01:46:03;;;;;;;3.22;1.70;;;;;;;3.65;74.42;99514.32;1751279;80;21677;-59
2021/04/26 01:48:35;;;;;;;5.10;1.67;;;;;;;3.63;74.45;99507.81;1733112;80;21687;-59
2021/04/26 01:51:04;;;;;;;2.70;1.60;;;;;;;3.55;74.76;99509.48;1737131;81;21153;-59
2021/04/26 01:53:34;;;;;;;3.22;1.52;;;;;;;3.52;75.04;99520.72;1744434;80;21166;-59
2021/04/26 01:56:04;;;;;;;3.50;1.30;;;;;;;3.54;75.02;99515.12;1736065;80;21135;-59
2021/04/26 01:58:39;;;;;;;3.87;1.92;;;;;;;3.58;75.21;99510.36;1705496;81;21702;-59
2021/04/26 02:01:08;;;;;;;5.58;1.77;;;;;;;3.44;75.43;99490.92;1704764;82;21248;-59
2021/04/26 02:03:37;;;;;;;4.28;1.67;;;;;;;3.29;75.98;99495.94;1703697;83;21564;-59
2021/04/26 02:06:13;;;;;;;3.22;1.47;;;;;;;3.27;76.27;99492.64;1764807;79;22708;-59
2021/04/26 02:09:01;;;;;;;3.47;1.77;;;;;;;3.30;76.11;99488.66;1732897;82;21190;-60
2021/04/26 02:11:30;;;;;;;4.87;1.77;;;;;;;3.28;76.06;99497.50;1723033;82;21319;-60
2021/04/26 02:13:59;;;;;;;4.92;1.80;;;;;;;3.24;76.28;99494.97;1675550;85;21184;-60
2021/04/26 02:16:26;;;;;;;4.08;1.57;;;;;;;3.24;76.32;99487.73;1693903;84;21811;-60
2021/04/26 02:18:54;;;;;;;3.40;1.65;;;;;;;3.29;76.02;99489.22;1700212;84;21219;-60
2021/04/26 02:21:22;;;;;;;4.12;1.82;;;;;;;3.30;75.96;99481.42;1691179;84;21165;-60
2021/04/26 02:23:49;;;;;;;3.80;1.67;;;;;;;3.28;76.14;99475.98;1669988;85;21569;-60
2021/04/26 02:26:17;;;;;;;3.30;1.90;;;;;;;3.24;76.26;99478.31;1703035;84;21598;-60
2021/04/26 02:28:45;;;;;;;5.67;1.85;;;;;;;3.29;76.25;99467.70;1690369;84;21165;-60
2021/04/26 02:31:17;;;;;;;3.75;2.20;;;;;;;3.34;76.13;99454.35;1691472;84;21603;-60
2021/04/26 02:33:55;;;;;;;4.78;1.80;;;;;;;3.34;76.20;99461.08;1684800;83;21704;-60
2021/04/26 02:36:29;;;;;;;3.55;1.77;;;;;;;3.28;76.27;99457.98;1703941;84;21185;-60
2021/04/26 02:39:01;;;;;;;4.30;1.90;;;;;;;3.26;76.38;99456.58;1697827;84;21609;-60
2021/04/26 02:41:32;;;;;;;4.92;2.17;;;;;;;3.28;76.25;99460.66;1702873;84;21153;-60
2021/04/26 02:44:06;;;;;;;3.58;1.90;;;;;;;3.33;76.08;99455.95;1638282;85;21191;-61
2021/04/26 02:46:36;;;;;;;4.87;1.80;;;;;;;3.33;76.09;99454.05;1705060;84;21178;-60
2021/04/26 02:49:04;;;;;;;3.60;2.00;;;;;;;3.23;76.35;99449.77;1700603;84;21208;-60
2021/04/26 02:51:33;;;;;;;4.08;2.00;;;;;;;3.15;76.68;99435.84;1710266;83;21918;-60
2021/04/26 02:54:03;;;;;;;3.45;1.62;;;;;;;3.11;76.80;99436.84;1697188;83;21190;-60
2021/04/26 02:56:40;;;;;;;4.12;2.08;;;;;;;3.12;76.78;99440.35;1687699;84;21303;-60
2021/04/26 02:59:09;;;;;;;3.20;1.55;;;;;;;3.08;76.89;99446.71;1700802;84;21165;-61
2021/04/26 03:01:41;;;;;;;4.35;1.95;;;;;;;3.03;77.17;99449.26;1692978;84;21600;-61
2021/04/26 03:04:19;;;;;;;3.22;1.60;;;;;;;3.06;77.30;99442.07;1834507;77;22803;-59
2021/04/26 03:06:49;;;;;;;4.47;1.70;;;;;;;3.10;77.05;99438.40;1822089;78;21105;-60
2021/04/26 03:09:22;;;;;;;3.62;1.70;;;;;;;2.96;77.13;99410.89;1811606;78;21282;-59
2021/04/26 03:11:52;;;;;;;3.17;1.70;;;;;;;3.15;77.36;99437.19;1776639;78;21721;-60
2021/04/26 03:14:20;;;;;;;3.62;1.70;;;;;;;3.17;77.36;99435.91;1795769;78;21318;-60
2021/04/26 03:16:48;;;;;;;3.75;1.70;;;;;;;3.25;77.23;99428.85;1770554;78;21570;-60
2021/04/26 03:19:18;;;;;;;4.10;1.62;;;;;;;3.38;76.89;99427.80;1777116;78;21170;-60
2021/04/26 03:21:47;;;;;;;3.40;1.80;;;;;;;3.39;76.68;99428.92;1817716;78;21132;-60
2021/04/26 03:24:16;;;;;;;4.17;2.00;;;;;;;3.37;76.67;99430.19;1793801;78;21174;-60
2021/04/26 03:26:46;;;;;;;4.15;2.12;;;;;;;3.32;76.68;99421.48;1809970;78;21154;-60
2021/04/26 03:29:19;;;;;;;3.85;1.72;;;;;;;3.33;76.61;99427.14;1781261;78;21152;-60
2021/04/26 03:31:48;;;;;;;2.77;1.40;;;;;;;3.37;76.41;99430.19;1823540;78;21121;-60
2021/04/26 03:34:17;;;;;;;3.58;1.90;;;;;;;3.29;76.38;99444.83;1814691;78;21286;-60
2021/04/26 03:36:45;;;;;;;5.15;2.10;;;;;;;3.15;76.82;99448.78;1814326;78;21118;-60
2021/04/26 03:39:13;;;;;;;4.83;1.90;;;;;;;3.04;77.19;99454.94;1805044;78;21169;-60
2021/04/26 03:41:41;;;;;;;4.40;1.98;;;;;;;3.03;77.34;99451.95;1807678;78;21125;-60
2021/04/26 03:44:16;;;;;;;4.35;2.10;;;;;;;3.11;77.19;99446.25;1818026;78;21275;-60
2021/04/26 03:47:03;;;;;;;3.52;2.20;;;;;;;3.22;77.12;99445.98;1792455;79;28678;-60
2021/04/26 03:49:41;;;;;;;4.40;2.22;;;;;;;3.44;76.65;99453.25;1763754;80;21138;-60
2021/04/26 03:52:18;;;;;;;4.53;2.70;;;;;;;3.63;76.29;99466.61;1761710;79;31644;-60
2021/04/26 03:55:08;;;;;;;5.15;3.15;;;;;;;3.69;76.08;99465.66;1726074;82;21175;-59
2021/04/26 03:57:35;;;;;;;5.87;2.87;;;;;;;3.74;75.84;99461.23;1650599;87;21222;-59
2021/04/26 04:00:06;;;;;;;5.95;2.65;;;;;;;3.63;76.15;99462.05;1684127;84;21227;-58
2021/04/26 04:02:35;;;;;;;4.55;2.35;;;;;;;3.47;76.43;99464.09;1684306;84;21150;-59
2021/04/26 04:05:07;;;;;;;7.00;2.62;;;;;;;3.40;76.84;99462.83;1683762;85;21170;-59
2021/04/26 04:07:43;;;;;;;5.12;2.35;;;;;;;3.50;76.85;99455.03;1779422;79;22640;-59
2021/04/26 04:10:29;;;;;;;4.45;2.67;;;;;;;3.60;76.63;99453.09;1711005;82;21156;-58
2021/04/26 04:13:02;;;;;;;6.28;2.83;;;;;;;3.61;76.49;99447.19;1709787;83;21129;-59
2021/04/26 04:15:32;;;;;;;5.28;2.30;;;;;;;3.58;76.76;99447.11;1713502;83;21172;-59
2021/04/26 04:18:00;;;;;;;5.78;3.33;;;;;;;3.54;76.76;99459.94;1714936;83;21153;-59
2021/04/26 04:20:29;;;;;;;5.55;3.17;;;;;;;3.61;76.67;99457.44;1717021;83;21182;-59
2021/04/26 04:22:57;;;;;;;6.00;2.85;;;;;;;3.73;76.53;99452.86;1701584;83;21161;-59
2021/04/26 04:25:26;;;;;;;6.45;4.35;;;;;;;3.81;76.63;99457.08;1712063;83;21210;-59
2021/04/26 04:27:55;;;;;;;5.20;3.30;;;;;;;3.86;76.55;99457.20;1722585;83;21180;-59
2021/04/26 04:30:23;;;;;;;8.53;3.90;;;;;;;3.84;76.47;99453.91;1713812;82;21164;-60
2021/04/26 04:33:02;;;;;;;5.55;3.52;;;;;;;3.89;76.47;99449.47;1710129;83;21139;-59
2021/04/26 04:35:30;;;;;;;5.22;3.02;;;;;;;4.04;76.23;99446.83;1642699;86;21230;-59
2021/04/26 04:38:16;;;;;;;6.67;4.05;;;;;;;4.09;75.68;99447.73;1639906;87;21168;-59
2021/04/26 04:41:01;;;;;;;7.47;4.30;;;;;;;4.01;75.51;99452.95;1697867;83;21177;-59
2021/04/26 04:43:30;;;;;;;6.45;3.17;;;;;;;4.01;75.73;99450.79;1701100;83;21724;-58
2021/04/26 04:46:00;;;;;;;6.05;3.98;;;;;;;4.15;75.38;99447.31;1685816;83;21612;-59
2021/04/26 04:48:42;;;;;;;5.53;3.22;;;;;;;4.34;74.96;99443.41;1699220;83;21165;-59
2021/04/26 04:51:12;;;;;;;6.72;3.70;;;;;;;4.40;73.89;99450.54;1713762;83;21675;-58
2021/04/26 04:53:41;;;;;;;5.75;3.37;;;;;;;4.29;73.66;99444.64;1700450;83;21198;-59
2021/04/26 04:56:09;;;;;;;4.80;2.95;;;;;;;4.21;73.80;99450.42;1706868;83;21176;-59
2021/04/26 04:58:39;;;;;;;5.35;3.08;;;;;;;4.30;73.63;99452.50;1707279;83;21248;-60
2021/04/26 05:01:08;;;;;;;6.37;3.12;;;;;;;4.50;72.97;99452.09;1648778;87;21215;-58
2021/04/26 05:03:54;;;;;;;4.90;3.17;;;;;;;4.64;73.03;99448.05;1678789;85;21173;-59
2021/04/26 05:06:44;;;;;;;7.08;3.55;;;;;;;4.84;72.59;99444.41;1766335;79;23431;-60
2021/04/26 05:09:17;;;;;;;4.83;2.77;;;;;;;4.83;72.26;99454.91;1630357;87;21212;-59
2021/04/26 05:12:04;;;;;;;4.30;2.12;;;;;;;4.88;72.03;99459.06;1651100;86;21187;-60
2021/04/26 05:14:46;;;;;;;5.55;2.40;;;;;;;5.06;72.52;99460.73;1678132;84;21343;-61
2021/04/26 05:17:12;;;;;;;4.55;2.60;;;;;;;5.31;70.45;99449.03;1648438;87;21220;-61
2021/04/26 05:19:40;;;;;;;3.87;2.20;;;;;;;5.58;70.41;99448.36;1670945;85;21142;-60
2021/04/26 05:22:08;;;;;;;5.10;2.37;;;;;;;5.85;68.73;99443.91;1660240;85;21145;-61
2021/04/26 05:24:38;;;;;;;3.35;1.80;;;;;;;6.02;67.87;99441.23;1673166;84;21609;-59
2021/04/26 05:27:07;;;;;;;3.62;2.25;;;;;;;6.10;67.38;99440.25;1678497;85;21185;-60
2021/04/26 05:29:35;;;;;;;4.05;2.25;;;;;;;6.14;67.71;99446.80;1671236;84;21331;-60
2021/04/26 05:32:03;;;;;;;3.90;1.85;;;;;;;6.31;67.71;99440.80;1659621;85;21149;-60
2021/04/26 05:34:31;;;;;;;5.42;2.42;;;;;;;6.56;67.15;99442.17;1678094;84;21482;-59
2021/04/26 05:36:59;;;;;;;5.80;2.60;;;;;;;6.74;66.09;99447.26;1649135;85;21193;-61
2021/04/26 05:39:27;;;;;;;3.02;2.00;;;;;;;6.95;64.03;99444.52;1677100;84;21242;-60
2021/04/26 05:41:56;;;;;;;3.67;2.22;;;;;;;7.01;61.53;99444.05;1655019;85;21610;-61
2021/04/26 05:44:24;;;;;;;5.47;2.72;;;;;;;6.94;62.46;99446.94;1622837;87;21196;-60
2021/04/26 05:47:04;;;;;;;4.37;2.40;;;;;;;7.15;63.51;99439.86;1779833;79;22672;-61
2021/04/26 05:49:32;;;;;;;3.27;2.17;;;;;;;7.35;61.99;99446.80;1719563;82;21196;-59
2021/04/26 05:51:59;;;;;;;5.28;2.50;;;;;;;7.46;61.59;99451.77;1714698;83;21276;-60
2021/04/26 05:54:27;;;;;;;4.33;2.27;;;;;;;7.52;60.22;99445.30;1693503;83;21250;-60
2021/04/26 05:56:55;;;;;;;4.35;2.58;;;;;;;7.64;59.11;99446.48;1679293;85;21323;-60
2021/04/26 05:59:22;;;;;;;4.28;2.47;;;;;;;7.66;59.25;99444.33;1697346;83;21164;-61
2021/04/26 06:01:50;;;;;;;3.62;2.10;;;;;;;7.80;59.69;99450.93;1681890;83;21188;-61
2021/04/26 06:04:17;;;;;;;4.05;2.00;;;;;;;8.05;58.86;99437.55;1682630;83;21647;-61
2021/04/26 06:06:45;;;;;;;4.87;2.37;;;;;;;8.18;57.12;99439.81;1680179;83;21176;-61
2021/04/26 06:09:12;;;;;;;4.42;2.55;;;;;;;8.04;57.19;99435.94;1704918;83;21173;-60
2021/04/26 06:11:41;;;;;;;5.35;2.47;;;;;;;8.11;56.18;99431.63;1705718;83;21148;-59
2021/04/26 06:14:09;;;;;;;5.12;2.70;;;;;;;8.18;55.42;99428.96;1701976;82;21222;-60
2021/04/26 06:16:37;;;;;;;4.58;2.17;;;;;;;8.39;53.70;99432.08;1723703;82;21181;-59
2021/04/26 06:19:07;;;;;;;4.72;2.20;;;;;;;8.44;51.38;99429.91;1703998;82;21193;-59
2021/04/26 06:21:36;;;;;;;2.92;2.00;;;;;;;8.46;51.24;99418.27;1701448;83;21337;-60
2021/04/26 06:24:05;;;;;;;4.90;2.10;;;;;;;8.51;49.66;99420.98;1719103;83;21149;-59
2021/04/26 06:26:33;;;;;;;3.55;2.15;;;;;;;8.68;51.05;99422.14;1683308;83;21165;-60
2021/04/26 06:29:00;;;;;;;4.45;2.20;;;;;;;8.83;50.01;99424.88;1712487;83;21631;-61
2021/04/26 06:31:28;;;;;;;5.40;2.47;;;;;;;8.89;47.61;99426.55;1709372;82;21208;-59
2021/04/26 06:33:56;;;;;;;4.97;2.30;;;;;;;8.76;48.27;99423.78;1714774;82;21525;-58
2021/04/26 06:36:25;;;;;;;6.62;2.58;;;;;;;8.89;48.69;99431.41;1687818;83;21228;-58
2021/04/26 06:38:53;;;;;;;4.40;2.37;;;;;;;9.10;47.98;99428.21;1699838;83;21190;-60
2021/04/26 06:41:20;;;;;;;4.22;2.20;;;;;;;9.31;44.23;99427.14;1706563;82;21153;-59
2021/04/26 06:43:48;;;;;;;3.08;1.92;;;;;;;9.35;43.29;99424.13;1687934;83;21208;-60
2021/04/26 06:46:16;;;;;;;4.33;2.20;;;;;;;9.33;43.12;99422.78;1707374;83;21170;-59
2021/04/26 06:48:47;;;;;;;4.15;1.60;;;;;;;9.46;42.99;99421.70;1705594;82;21379;-59
2021/04/26 06:51:14;;;;;;;3.17;1.40;;;;;;;9.43;42.20;99424.14;1679332;82;21180;-59
2021/04/26 06:53:42;;;;;;;2.77;1.40;;;;;;;9.36;39.20;99428.48;1695919;84;21207;-59
2021/04/26 06:56:09;;;;;;;3.25;1.70;;;;;;;9.26;39.56;99431.20;1695770;84;21165;-59
2021/04/26 06:58:37;;;;;;;1.92;1.20;;;;;;;9.02;39.22;99421.13;1716940;82;21169;-61
2021/04/26 07:01:04;;;;;;;2.70;1.40;;;;;;;9.05;39.84;99424.66;1693848;82;21165;-60
2021/04/26 07:03:32;;;;;;;3.30;1.15;;;;;;;9.12;40.03;99421.95;1697950;82;21431;-61
2021/04/26 07:05:59;;;;;;;2.17;1.20;;;;;;;9.17;40.20;99421.97;1692984;84;21245;-61
2021/04/26 07:08:27;;;;;;;3.33;1.10;;;;;;;9.18;37.35;99424.94;1694188;84;21190;-66
2021/04/26 07:10:54;;;;;;;4.72;1.32;;;;;;;9.22;38.62;99420.60;1698686;82;21162;-60
2021/04/26 07:13:22;;;;;;;2.55;1.50;;;;;;;9.33;39.59;99423.60;1697574;82;21177;-60
2021/04/26 07:15:50;;;;;;;1.92;0.90;;;;;;;9.46;37.15;99430.38;1697984;84;21630;-59
2021/04/26 07:18:18;;;;;;;3.15;1.22;;;;;;;9.55;37.81;99426.05;1696511;84;21327;-61
2021/04/26 07:20:45;;;;;;;2.98;1.40;;;;;;;9.51;35.80;99423.60;1693061;84;21192;-60
2021/04/26 07:23:13;;;;;;;2.17;0.90;;;;;;;9.27;36.45;99420.63;1705800;84;21221;-60
2021/04/26 07:25:40;;;;;;;3.22;1.15;;;;;;;9.03;38.16;99426.30;1700092;82;21300;-58
2021/04/26 07:28:08;;;;;;;1.82;0.78;;;;;;;8.77;37.07;99424.06;1655634;84;21126;-60
2021/04/26 07:30:36;;;;;;;1.30;0.68;;;;;;;8.42;35.85;99442.93;1706658;82;21626;-59
2021/04/26 07:33:05;;;;;;;2.62;0.78;;;;;;;8.06;36.48;99437.83;1657847;84;21323;-59
2021/04/26 07:35:33;;;;;;;4.08;1.92;;;;;;;7.94;37.01;99433.14;1690823;84;21246;-59
2021/04/26 07:38:00;;;;;;;27.62;14.70;;;;;;;7.83;37.12;99437.67;1688434;84;21181;-58
2021/04/26 07:40:27;;;;;;;5.72;2.52;;;;;;;8.00;38.02;99433.47;1696605;83;21248;-58
2021/04/26 07:42:55;;;;;;;1.45;0.80;;;;;;;8.15;37.15;99441.66;1693855;84;21167;-59
2021/04/26 07:45:24;;;;;;;1.98;0.60;;;;;;;8.28;35.64;99430.39;1708449;82;21484;-59
2021/04/26 07:47:54;;;;;;;2.77;0.70;;;;;;;8.54;34.19;99437.29;1700443;84;21151;-58
2021/04/26 07:50:21;;;;;;;1.22;0.60;;;;;;;8.84;34.70;99425.16;1695739;84;21183;-58
2021/04/26 07:52:48;;;;;;;1.57;0.60;;;;;;;9.12;33.19;99433.36;1704517;84;21141;-58
2021/04/26 07:55:15;;;;;;;2.02;1.15;;;;;;;9.21;33.33;99425.75;1698654;84;21191;-58
2021/04/26 07:57:44;;;;;;;1.85;0.98;;;;;;;9.40;32.68;99420.61;1678609;84;21145;-59
2021/04/26 08:00:12;;;;;;;2.02;0.60;;;;;;;9.45;31.99;99429.59;1677913;84;21176;-60
2021/04/26 08:02:40;;;;;;;1.20;0.50;;;;;;;9.14;31.85;99425.77;1700456;84;21173;-60
2021/04/26 08:05:11;;;;;;;1.10;0.30;;;;;;;9.14;35.14;99431.99;1686873;82;21219;-59
2021/04/26 08:07:39;;;;;;;2.35;0.60;;;;;;;9.34;33.80;99427.14;1683056;84;21177;-59
2021/04/26 08:10:08;;;;;;;2.02;0.68;;;;;;;9.36;32.50;99418.98;1700460;84;21589;-60
2021/04/26 08:12:35;;;;;;;2.95;1.40;;;;;;;9.33;33.25;99420.89;1694955;82;21328;-58
2021/04/26 08:15:06;;;;;;;1.55;0.60;;;;;;;9.05;32.32;99426.02;1687992;84;21219;-59
2021/04/26 08:17:33;;;;;;;2.60;1.37;;;;;;;8.79;33.75;99427.84;1672618;84;21581;-58
2021/04/26 08:20:01;;;;;;;4.83;1.70;;;;;;;8.56;34.65;99426.44;1685993;84;21199;-59
2021/04/26 08:22:28;;;;;;;1.12;0.47;;;;;;;8.44;35.30;99438.05;1701644;84;21614;-59
2021/04/26 08:24:56;;;;;;;2.70;0.93;;;;;;;8.45;34.60;99433.72;1692482;84;21190;-59
2021/04/26 08:27:24;;;;;;;1.05;0.45;;;;;;;8.61;35.52;99428.36;1693389;84;21185;-59
2021/04/26 08:29:51;;;;;;;1.55;0.50;;;;;;;8.91;33.81;99431.15;1693485;84;21157;-59
2021/04/26 08:32:19;;;;;;;1.70;0.60;;;;;;;9.24;33.65;99422.52;1693163;84;21564;-58
2021/04/26 08:34:47;;;;;;;1.67;0.60;;;;;;;9.43;30.16;99421.42;1687126;84;21167;-58
2021/04/26 08:37:14;;;;;;;0.70;0.40;;;;;;;9.41;30.87;99424.97;1699382;84;21181;-59
2021/04/26 08:39:42;;;;;;;3.00;0.50;;;;;;;9.31;32.07;99426.33;1699189;84;21298;-58
2021/04/26 08:42:17;;;;;;;1.87;0.70;;;;;;;9.10;31.99;99424.67;1695559;84;21740;-59
2021/04/26 08:44:46;;;;;;;1.32;0.50;;;;;;;8.87;33.08;99424.62;1710964;82;21299;-59
2021/04/26 08:47:15;;;;;;;3.95;0.80;;;;;;;8.71;33.37;99435.17;1658242;84;21318;-58
2021/04/26 08:49:43;;;;;;;1.20;0.62;;;;;;;8.52;34.96;99447.57;1688172;84;21151;-58
2021/04/26 08:52:11;;;;;;;1.10;0.50;;;;;;;8.36;35.60;99434.50;1707870;84;21356;-58
2021/04/26 08:54:38;;;;;;;1.72;0.60;;;;;;;8.21;35.15;99445.23;1695198;84;21670;-58
2021/04/26 08:57:06;;;;;;;1.60;0.60;;;;;;;8.19;35.40;99449.55;1705109;84;21181;-58
2021/04/26 08:59:35;;;;;;;1.30;0.60;;;;;;;8.15;35.24;99449.01;1698297;84;21636;-59
2021/04/26 09:02:06;;;;;;;1.67;0.70;;;;;;;8.08;35.35;99460.63;1681404;84;21613;-58
2021/04/26 09:04:35;;;;;;;1.95;0.80;;;;;;;8.08;36.18;99453.84;1686513;84;21712;-57
2021/04/26 09:07:05;;;;;;;2.00;0.62;;;;;;;8.15;35.94;99455.78;1701708;84;21159;-59
2021/04/26 09:09:51;;;;;;;1.10;0.47;;;;;;;8.16;34.08;99443.30;1675053;84;21238;-59
2021/04/26 09:12:28;;;;;;;1.50;0.60;;;;;;;8.12;32.65;99453.58;1659000;84;21154;-59
2021/04/26 09:14:59;;;;;;;1.40;0.55;;;;;;;8.10;33.77;99451.14;1701752;82;21196;-60
2021/04/26 09:17:40;;;;;;;1.40;0.50;;;;;;;8.08;33.15;99450.57;1695797;84;21343;-59
2021/04/26 09:20:22;;;;;;;1.40;0.50;;;;;;;8.08;33.29;99453.28;1707898;84;21138;-59
2021/04/26 09:22:54;;;;;;;0.75;0.40;;;;;;;8.05;31.68;99438.90;1679990;84;21166;-60
2021/04/26 09:25:35;;;;;;;2.15;0.60;;;;;;;7.94;31.09;99454.82;1708340;83;21185;-59
2021/04/26 09:28:14;;;;;;;1.45;0.50;;;;;;;7.97;32.17;99444.84;1694782;84;21608;-61
2021/04/26 09:30:53;;;;;;;1.92;0.60;;;;;;;8.01;32.59;99445.92;1695959;84;21164;-60
2021/04/26 09:33:37;;;;;;;0.95;0.50;;;;;;;8.11;32.68;99448.72;1690188;84;21315;-60
2021/04/26 09:36:17;;;;;;;2.52;0.60;;;;;;;8.22;33.99;99440.09;1675858;84;21174;-60
2021/04/26 09:38:52;;;;;;;;;;;;;;;8.37;33.34;99443.71;1687477;84;21215;-61
2021/04/26 09:41:28;;;;;;;;;;;;;;;8.43;33.17;99449.99;1693591;82;20259;-60
2021/04/26 09:44:09;;;;;;;1.45;0.68;;;;;;;8.35;34.27;99466.23;1698851;82;20191;-60
2021/04/26 09:46:43;;;;;;;1.32;0.55;;;;;;;8.15;34.94;99445.73;1691978;83;21202;-61
2021/04/26 09:49:15;;;;;;;1.77;0.60;;;;;;;8.07;35.16;99460.34;1716844;83;21671;-60
2021/04/26 09:51:50;;;;;;;2.55;0.70;;;;;;;8.09;36.25;99457.63;1704881;83;21604;-60
2021/04/26 09:54:33;;;;;;;1.75;0.60;;;;;;;8.21;37.04;99454.19;1673411;85;21185;-62
2021/04/26 09:57:01;;;;;;;1.75;0.70;;;;;;;8.33;35.88;99454.81;1658436;86;21687;-60
2021/04/26 09:59:29;;;;;;;1.42;0.50;;;;;;;8.50;34.08;99450.57;1614578;87;21185;-62
2021/04/26 10:01:57;;;;;;;1.05;0.50;;;;;;;8.59;34.50;99446.78;1643850;86;21185;-60
2021/04/26 10:04:26;;;;;;;1.92;0.68;;;;;;;8.75;33.64;99447.13;1698554;83;21141;-61
2021/04/26 10:06:54;;;;;;;1.25;0.50;;;;;;;8.95;32.94;99443.92;1717233;83;21338;-61
2021/04/26 10:09:22;;;;;;;2.02;0.60;;;;;;;9.17;32.90;99443.70;1716891;83;21303;-60
2021/04/26 10:11:51;;;;;;;1.72;0.75;;;;;;;9.42;33.19;99443.70;1710744;83;21163;-60
2021/04/26 10:14:19;;;;;;;0.95;0.50;;;;;;;9.55;32.98;99441.00;1694502;83;21335;-61
2021/04/26 10:17:03;;;;;;;1.67;0.57;;;;;;;9.49;31.89;99442.88;1716892;83;21229;-61
2021/04/26 10:19:33;;;;;;;2.60;0.57;;;;;;;9.32;32.06;99447.77;1706057;83;21311;-60
2021/04/26 10:22:03;;;;;;;0.93;0.47;;;;;;;9.20;32.90;99440.44;1693803;83;21568;-59
2021/04/26 10:24:33;;;;;;;1.30;0.50;;;;;;;9.16;33.63;99437.98;1702450;83;21160;-60
2021/04/26 10:27:08;;;;;;;2.05;0.70;;;;;;;9.26;34.29;99438.00;1702594;83;21166;-59
2021/04/26 10:29:39;;;;;;;1.80;0.50;;;;;;;9.51;33.10;99435.83;1712962;83;21661;-61
2021/04/26 10:32:16;;;;;;;1.05;0.53;;;;;;;9.59;32.63;99438.55;1711693;83;21170;-61
2021/04/26 10:34:56;;;;;;;1.45;0.55;;;;;;;9.47;31.56;99438.28;1676512;83;21429;-61
2021/04/26 10:37:26;;;;;;;1.07;0.47;;;;;;;9.25;32.77;99446.40;1717249;83;21637;-61
2021/04/26 10:40:05;;;;;;;1.15;0.50;;;;;;;9.15;33.65;99451.82;1714278;83;21289;-61
2021/04/26 10:42:49;;;;;;;1.20;0.53;;;;;;;9.15;33.20;99450.47;1694626;83;21141;-61
2021/04/26 10:45:25;;;;;;;1.10;0.40;;;;;;;9.10;32.50;99454.01;1712500;83;21201;-61
2021/04/26 10:48:09;;;;;;;1.98;0.90;;;;;;;8.93;32.38;99455.58;1721444;83;21326;-61
2021/04/26 10:50:43;;;;;;;2.58;0.68;;;;;;;8.86;32.34;99448.77;1709769;83;21180;-60
2021/04/26 10:53:12;;;;;;;3.08;1.10;;;;;;;8.79;32.51;99451.73;1700873;83;21204;-61
2021/04/26 10:55:46;;;;;;;3.42;1.22;;;;;;;8.84;32.64;99452.30;1690111;85;21206;-61
2021/04/26 10:58:29;;;;;;;1.65;0.70;;;;;;;9.00;33.65;99446.64;1697002;83;21554;-60
2021/04/26 11:00:57;;;;;;;4.00;1.05;;;;;;;9.29;31.86;99438.80;1694296;85;21181;-61
2021/04/26 11:03:31;;;;;;;5.67;1.32;;;;;;;9.72;32.91;99433.38;1696006;83;21154;-61
2021/04/26 11:06:08;;;;;;;3.58;1.30;;;;;;;10.13;31.24;99436.03;1716692;83;21165;-61
2021/04/26 11:08:42;;;;;;;1.22;0.70;;;;;;;10.33;31.66;99430.56;1709498;83;21284;-61
2021/04/26 11:11:17;;;;;;;1.55;0.78;;;;;;;10.34;28.63;99435.73;1716216;82;21142;-59
2021/04/26 11:13:54;;;;;;;2.22;0.72;;;;;;;10.25;30.38;99435.20;1713875;82;21306;-59
2021/04/26 11:16:32;;;;;;;2.20;0.60;;;;;;;9.89;31.46;99405.34;1693012;85;21298;-60
2021/04/26 11:19:09;;;;;;;1.52;0.50;;;;;;;9.35;32.10;99439.64;1694223;83;21180;-60
2021/04/26 11:21:50;;;;;;;2.55;0.80;;;;;;;9.01;33.28;99444.73;1705246;83;21588;-61
2021/04/26 11:24:28;;;;;;;1.32;0.60;;;;;;;8.78;35.00;99450.67;1707572;83;21808;-60
2021/04/26 11:27:15;;;;;;;1.77;0.70;;;;;;;8.75;37.39;99452.56;1701558;83;21786;-58
2021/04/26 11:29:52;;;;;;;1.75;0.62;;;;;;;8.86;35.46;99448.23;1707677;83;21500;-58
2021/04/26 11:32:20;;;;;;;1.77;0.60;;;;;;;8.93;35.16;99452.05;1702189;83;21131;-57
2021/04/26 11:34:56;;;;;;;2.17;0.70;;;;;;;8.98;34.82;99446.64;1714926;83;21213;-58
2021/04/26 11:37:24;;;;;;;2.20;0.70;;;;;;;9.08;35.65;99454.80;1719711;83;21145;-64
2021/04/26 11:39:54;;;;;;;2.90;0.72;;;;;;;9.18;33.38;99443.95;1701510;83;21640;-63
2021/04/26 11:42:24;;;;;;;1.35;0.50;;;;;;;9.23;33.22;99443.97;1707737;83;21173;-65
2021/04/26 11:44:51;;;;;;;1.32;0.40;;;;;;;9.09;32.85;99439.33;1717557;83;21349;-61
2021/04/26 11:47:41;;;;;;;2.72;1.00;;;;;;;9.03;33.71;99448.56;1719597;82;21352;-61
2021/04/26 11:50:11;;;;;;;2.85;0.70;;;;;;;9.03;34.16;99450.73;1655464;86;21242;-62
2021/04/26 11:52:38;;;;;;;1.47;0.55;;;;;;;9.01;34.86;99454.24;1664727;86;21191;-63
2021/04/26 11:55:10;;;;;;;1.67;0.60;;;;;;;9.03;33.56;99451.27;1652224;86;21193;-63
2021/04/26 11:57:56;;;;;;;1.45;0.65;;;;;;;8.99;33.31;99449.09;1710285;83;21477;-61
2021/04/26 12:00:29;;;;;;;1.47;0.60;;;;;;;8.98;33.54;99437.14;1708972;83;21216;-61
2021/04/26 12:03:09;;;;;;;2.92;1.22;;;;;;;9.07;34.27;99435.52;1696174;84;21216;-62